Time;durP1;ratioP1;P1;durP2;ratioP2;P2;SDS_P1;SDS_P2;PMS_P1;PMS_P2;Temp;Humidity;BMP_temperature;BMP_pressure;BME280_temperature;BME280_humidity;BME280_pressure;Samples;Min_cycle;Max_cycle;Signal;HPM_P1;HPM_P2
2021/04/11 00:00:22;;;;;;;15.83;8.70;;;10.50;99.70;;;;;;5110889;28;20445;-71
2021/04/11 00:02:48;;;;;;;21.90;10.00;;;10.50;99.70;;;;;;5111658;28;20521;-71
2021/04/11 00:05:16;;;;;;;12.63;6.97;;;10.40;99.70;;;;;;5111574;28;20441;-70
2021/04/11 00:07:43;;;;;;;13.97;6.73;;;10.30;99.70;;;;;;5111528;28;20487;-71
2021/04/11 00:10:14;;;;;;;11.77;6.57;;;10.30;99.70;;;;;;5111266;28;20433;-70
2021/04/11 00:12:40;;;;;;;10.90;5.90;;;10.30;99.70;;;;;;5111079;28;20518;-70
2021/04/11 00:15:08;;;;;;;11.97;6.47;;;10.30;99.70;;;;;;5111372;28;20997;-70
2021/04/11 00:17:35;;;;;;;11.70;6.50;;;10.20;99.70;;;;;;5111405;28;20441;-71
2021/04/11 00:20:02;;;;;;;18.67;9.43;;;10.30;99.70;;;;;;5111048;28;20447;-70
2021/04/11 00:22:28;;;;;;;20.70;10.00;;;10.20;99.70;;;;;;5111021;28;20457;-71
2021/04/11 00:24:54;;;;;;;19.00;9.00;;;10.10;99.70;;;;;;5110596;28;20463;-69
2021/04/11 00:27:20;;;;;;;17.97;8.70;;;10.10;99.70;;;;;;5111028;28;20857;-71
2021/04/11 00:29:46;;;;;;;15.23;7.77;;;10.10;99.70;;;;;;5111037;28;20806;-71
2021/04/11 00:32:13;;;;;;;9.73;5.80;;;10.00;99.70;;;;;;5110740;28;20469;-71
2021/04/11 00:34:40;;;;;;;9.50;5.80;;;10.00;99.70;;;;;;5111033;28;20495;-71
2021/04/11 00:37:08;;;;;;;9.60;5.20;;;10.00;99.70;;;;;;5110923;28;20441;-71
2021/04/11 00:39:34;;;;;;;10.53;5.50;;;10.00;99.70;;;;;;5110839;28;20458;-71
2021/04/11 00:42:05;;;;;;;14.93;6.27;;;10.00;99.70;;;;;;5110877;28;20464;-71
2021/04/11 00:44:32;;;;;;;9.40;5.40;;;10.00;99.70;;;;;;5111208;28;20452;-71
2021/04/11 00:47:00;;;;;;;8.40;4.73;;;10.00;99.70;;;;;;5110984;28;20480;-70
2021/04/11 00:49:30;;;;;;;8.80;4.20;;;10.00;99.70;;;;;;5110783;28;20464;-70
2021/04/11 00:51:57;;;;;;;5.80;3.40;;;10.10;99.70;;;;;;5111016;28;20511;-70
2021/04/11 00:54:24;;;;;;;6.27;3.10;;;10.30;99.70;;;;;;5111250;28;20449;-70
2021/04/11 00:56:51;;;;;;;4.90;3.10;;;10.30;99.70;;;;;;5110735;28;20448;-70
2021/04/11 00:59:19;;;;;;;8.10;3.03;;;10.20;99.70;;;;;;5110939;28;20788;-70
2021/04/11 01:01:46;;;;;;;8.70;3.20;;;10.20;99.70;;;;;;5110719;28;20461;-71
2021/04/11 01:04:14;;;;;;;4.97;3.00;;;10.30;99.40;;;;;;5110775;28;20455;-70
2021/04/11 01:06:44;;;;;;;3.80;2.77;;;10.30;99.70;;;;;;5110465;28;20489;-71
2021/04/11 01:09:15;;;;;;;3.73;2.87;;;10.30;99.20;;;;;;5110382;28;20501;-70
2021/04/11 01:11:42;;;;;;;5.80;3.17;;;10.20;99.70;;;;;;5110475;28;20601;-70
2021/04/11 01:14:09;;;;;;;5.47;3.00;;;10.10;99.70;;;;;;5110759;28;20803;-70
2021/04/11 01:16:36;;;;;;;3.60;2.73;;;10.10;99.70;;;;;;5110466;28;20441;-70
2021/04/11 01:19:06;;;;;;;4.00;2.80;;;9.90;99.70;;;;;;5110385;28;20502;-70
2021/04/11 01:21:40;;;;;;;4.47;3.07;;;10.00;99.70;;;;;;5110552;28;20460;-70
2021/04/11 01:24:16;;;;;;;6.23;3.57;;;10.10;99.70;;;;;;5112041;28;20464;-70
2021/04/11 01:26:44;;;;;;;3.90;2.93;;;10.10;99.70;;;;;;5113917;28;20502;-70
2021/04/11 01:29:11;;;;;;;5.80;3.00;;;10.10;99.70;;;;;;5114642;28;20448;-70
2021/04/11 01:31:38;;;;;;;4.70;3.00;;;10.10;99.70;;;;;;5114494;28;20468;-71
2021/04/11 01:34:06;;;;;;;5.40;2.97;;;10.00;99.70;;;;;;5114788;28;20522;-71
2021/04/11 01:36:34;;;;;;;4.80;2.93;;;10.00;99.70;;;;;;5114411;28;20494;-71
2021/04/11 01:39:04;;;;;;;4.50;2.90;;;10.00;99.70;;;;;;5114221;28;20449;-70
2021/04/11 01:41:34;;;;;;;4.60;3.27;;;9.90;99.70;;;;;;5114144;28;21050;-71
2021/04/11 01:44:03;;;;;;;7.20;3.27;;;9.90;99.70;;;;;;5114475;28;20440;-71
2021/04/11 01:46:30;;;;;;;5.60;3.10;;;9.90;99.70;;;;;;5114184;28;21141;-71
2021/04/11 01:48:57;;;;;;;5.30;3.30;;;9.90;99.70;;;;;;5114105;28;20444;-71
2021/04/11 01:51:28;;;;;;;8.03;3.80;;;9.90;99.70;;;;;;5113885;28;20468;-71
2021/04/11 01:53:55;;;;;;;6.60;3.40;;;9.90;99.70;;;;;;5114122;28;20448;-71
2021/04/11 01:56:21;;;;;;;4.77;3.00;;;10.00;99.70;;;;;;5113823;28;20441;-71
2021/04/11 01:58:48;;;;;;;6.97;3.13;;;10.10;99.70;;;;;;5113683;28;20464;-70
2021/04/11 02:01:22;;;;;;;4.90;3.10;;;10.10;99.70;;;;;;5113780;28;20457;-73
2021/04/11 02:03:52;;;;;;;4.40;3.20;;;10.30;98.90;;;;;;5113989;28;20440;-72
2021/04/11 02:06:19;;;;;;;5.53;3.40;;;10.30;99.70;;;;;;5113857;28;20539;-70
2021/04/11 02:08:47;;;;;;;8.23;3.50;;;10.20;99.70;;;;;;5113327;28;20447;-71
2021/04/11 02:11:13;;;;;;;7.70;3.77;;;10.30;99.70;;;;;;5113389;28;20481;-70
2021/04/11 02:13:41;;;;;;;6.03;3.40;;;10.30;99.70;;;;;;5113609;28;20445;-70
2021/04/11 02:16:09;;;;;;;6.07;3.30;;;10.30;99.70;;;;;;5113541;28;20452;-72
2021/04/11 02:18:36;;;;;;;4.80;3.37;;;10.20;99.70;;;;;;5113695;28;20441;-72
2021/04/11 02:21:06;;;;;;;6.93;3.80;;;10.20;99.70;;;;;;5113536;28;20868;-72
2021/04/11 02:23:33;;;;;;;5.47;3.50;;;10.30;99.70;;;;;;5113499;28;20970;-73
2021/04/11 02:25:59;;;;;;;8.30;3.80;;;10.30;99.70;;;;;;5112894;28;20441;-72
2021/04/11 02:28:28;;;;;;;7.80;3.70;;;10.20;99.70;;;;;;5113342;28;20437;-71
2021/04/11 02:30:56;;;;;;;6.20;3.70;;;10.20;99.70;;;;;;5113117;28;20866;-72
2021/04/11 02:33:24;;;;;;;6.23;3.60;;;10.20;99.70;;;;;;5113531;28;20445;-72
2021/04/11 02:35:52;;;;;;;6.40;3.10;;;10.20;99.70;;;;;;5113296;28;20445;-73
2021/04/11 02:38:20;;;;;;;7.17;3.80;;;10.20;99.70;;;;;;5112988;28;20441;-72
2021/04/11 02:40:48;;;;;;;4.97;3.43;;;10.20;99.70;;;;;;5113113;28;20440;-73
2021/04/11 02:43:15;;;;;;;5.00;3.50;;;10.30;99.70;;;;;;5113203;28;20949;-71
2021/04/11 02:45:44;;;;;;;7.13;3.50;;;10.30;99.70;;;;;;5113363;28;20441;-72
2021/04/11 02:48:13;;;;;;;6.70;3.30;;;10.30;99.70;;;;;;5112833;28;20476;-72
2021/04/11 02:50:42;;;;;;;6.00;3.83;;;10.20;99.70;;;;;;5113058;28;20943;-72
2021/04/11 02:53:13;;;;;;;6.27;3.90;;;10.20;99.70;;;;;;5113031;28;20448;-71
2021/04/11 02:55:42;;;;;;;6.13;3.87;;;10.20;99.70;;;;;;5113140;28;20448;-71
2021/04/11 02:58:11;;;;;;;7.93;4.20;;;10.20;99.70;;;;;;5112750;28;20433;-72
2021/04/11 03:00:41;;;;;;;6.10;3.80;;;10.10;99.70;;;;;;5112659;28;20437;-72
2021/04/11 03:03:08;;;;;;;7.17;4.10;;;10.10;99.70;;;;;;5112984;28;20445;-72
2021/04/11 03:05:34;;;;;;;6.60;3.97;;;10.00;99.70;;;;;;5112955;28;20447;-71
2021/04/11 03:08:02;;;;;;;5.63;3.73;;;10.20;99.70;;;;;;5112472;28;20485;-71
2021/04/11 03:10:36;;;;;;;6.23;3.90;;;10.30;99.70;;;;;;5112480;28;20471;-71
2021/04/11 03:13:03;;;;;;;6.33;4.30;;;10.30;99.70;;;;;;5112420;28;20506;-71
2021/04/11 03:15:30;;;;;;;8.30;3.97;;;10.20;99.70;;;;;;5112692;28;20448;-72
2021/04/11 03:17:57;;;;;;;8.53;4.77;;;10.20;99.70;;;;;;5112252;28;20437;-71
2021/04/11 03:20:27;;;;;;;6.03;4.13;;;10.10;99.70;;;;;;5112269;28;20445;-71
2021/04/11 03:22:55;;;;;;;6.67;4.90;;;10.20;99.70;;;;;;5112202;28;20831;-72
2021/04/11 03:25:22;;;;;;;7.57;5.00;;;10.20;99.70;;;;;;5111878;28;20440;-71
2021/04/11 03:27:56;;;;;;;7.13;4.80;;;10.30;99.70;;;;;;5112136;28;20480;-72
2021/04/11 03:30:27;;;;;;;7.70;5.30;;;10.40;99.70;;;;;;5112034;28;20436;-71
2021/04/11 03:32:58;;;;;;;7.33;5.10;;;10.40;99.70;;;;;;5111996;28;20461;-71
2021/04/11 03:35:28;;;;;;;7.27;4.80;;;10.40;99.70;;;;;;5112252;28;20449;-71
2021/04/11 03:37:58;;;;;;;7.10;4.90;;;10.40;99.70;;;;;;5111944;28;20433;-72
2021/04/11 03:40:28;;;;;;;7.30;4.47;;;10.30;99.70;;;;;;5110738;28;20635;-71
2021/04/11 03:43:01;;;;;;;8.00;5.07;;;10.30;99.70;;;;;;5105256;28;20465;-70
2021/04/11 03:45:31;;;;;;;9.47;4.90;;;10.30;99.70;;;;;;5105366;28;20445;-70
2021/04/11 03:48:04;;;;;;;7.57;4.70;;;10.50;99.70;;;;;;5108536;28;20549;-70
2021/04/11 03:50:33;;;;;;;8.33;5.20;;;10.40;99.70;;;;;;5111745;28;20524;-70
2021/04/11 03:53:03;;;;;;;8.40;5.10;;;10.40;99.70;;;;;;5111640;28;20537;-70
2021/04/11 03:55:32;;;;;;;9.50;5.17;;;10.40;99.70;;;;;;5111803;28;20448;-70
2021/04/11 03:58:05;;;;;;;9.47;5.20;;;10.30;99.70;;;;;;5111734;28;20444;-71
2021/04/11 04:00:36;;;;;;;10.07;4.90;;;10.30;99.70;;;;;;5107598;28;20456;-69
2021/04/11 04:03:07;;;;;;;9.33;5.00;;;10.20;99.70;;;;;;5106354;28;20461;-70
2021/04/11 04:05:36;;;;;;;7.73;4.90;;;10.10;99.70;;;;;;5109708;28;20468;-70
2021/04/11 04:08:04;;;;;;;10.00;4.77;;;10.10;99.70;;;;;;5111612;28;20656;-70
2021/04/11 04:10:34;;;;;;;6.70;4.60;;;10.10;99.70;;;;;;5111435;28;20441;-70
2021/04/11 04:13:10;;;;;;;10.47;5.33;;;10.10;99.70;;;;;;5111180;28;20469;-70
2021/04/11 04:16:10;;;;;;;7.40;4.70;;;10.00;99.70;;;;;;5111597;28;20448;-70
2021/04/11 04:19:04;;;;;;;7.27;4.77;;;10.00;99.70;;;;;;5111309;28;20441;-67
2021/04/11 04:21:55;;;;;;;8.43;4.60;;;10.00;99.70;;;;;;5111211;28;20457;-71
2021/04/11 04:24:34;;;;;;;7.93;4.90;;;10.10;99.70;;;;;;5098985;28;20983;-70
2021/04/11 04:27:04;;;;;;;11.00;5.07;;;10.10;99.70;;;;;;5110621;28;20481;-71
2021/04/11 04:29:36;;;;;;;8.97;5.00;;;10.10;99.70;;;;;;5110992;28;20441;-70
2021/04/11 04:32:28;;;;;;;7.77;4.63;;;10.10;99.70;;;;;;5111085;28;20468;-70
2021/04/11 04:35:06;;;;;;;7.83;4.87;;;10.10;99.70;;;;;;5111148;28;20445;-70
2021/04/11 04:37:41;;;;;;;8.73;5.40;;;10.10;99.70;;;;;;5111226;28;20807;-71
2021/04/11 04:40:11;;;;;;;6.10;4.43;;;10.10;99.70;;;;;;5111108;28;20440;-71
2021/04/11 04:42:45;;;;;;;8.00;4.90;;;10.20;99.70;;;;;;5111252;28;20461;-71
2021/04/11 04:45:19;;;;;;;7.27;4.43;;;10.10;99.70;;;;;;5111208;28;20721;-71
2021/04/11 04:47:50;;;;;;;9.33;5.30;;;10.00;99.70;;;;;;5111134;28;20473;-70
2021/04/11 04:50:20;;;;;;;9.17;4.90;;;10.00;99.70;;;;;;5110700;28;20837;-70
2021/04/11 04:52:55;;;;;;;6.60;4.90;;;10.00;99.70;;;;;;5110816;28;20522;-71
2021/04/11 04:55:24;;;;;;;9.47;5.30;;;10.00;99.70;;;;;;5110910;28;20444;-70
2021/04/11 04:57:54;;;;;;;8.67;5.10;;;10.10;99.70;;;;;;5110706;28;20866;-71
2021/04/11 05:00:25;;;;;;;11.07;5.43;;;10.20;99.70;;;;;;5110452;28;20467;-70
2021/04/11 05:02:58;;;;;;;7.77;5.10;;;10.20;99.70;;;;;;5110640;28;20471;-70
2021/04/11 05:05:27;;;;;;;8.90;5.53;;;10.20;99.70;;;;;;5110542;28;20456;-71
2021/04/11 05:07:58;;;;;;;9.70;5.57;;;10.30;99.70;;;;;;5110304;28;20542;-71
2021/04/11 05:10:27;;;;;;;7.50;4.93;;;10.30;99.70;;;;;;5110326;28;20441;-70
2021/04/11 05:13:00;;;;;;;9.43;5.60;;;10.40;99.70;;;;;;5110372;28;20468;-71
2021/04/11 05:15:31;;;;;;;9.40;5.30;;;10.40;99.70;;;;;;5109667;28;20872;-71
2021/04/11 05:18:02;;;;;;;6.90;4.70;;;10.20;99.70;;;;;;5109704;28;20812;-71
2021/04/11 05:20:32;;;;;;;8.40;5.10;;;10.10;99.70;;;;;;5110074;28;20444;-71
2021/04/11 05:23:06;;;;;;;7.30;5.03;;;10.00;99.70;;;;;;5110664;28;20461;-71
2021/04/11 05:25:39;;;;;;;6.90;4.50;;;10.00;99.70;;;;;;5109696;28;20439;-71
2021/04/11 05:28:11;;;;;;;9.80;4.93;;;10.00;99.70;;;;;;5110202;28;20487;-71
2021/04/11 05:30:41;;;;;;;8.90;5.20;;;10.10;99.70;;;;;;5109893;28;20437;-70
2021/04/11 05:33:11;;;;;;;7.30;5.13;;;10.10;99.70;;;;;;5106738;28;20473;-70
2021/04/11 05:35:37;;;;;;;9.40;5.40;;;10.10;99.70;;;;;;5099200;28;20497;-71
2021/04/11 05:38:29;;;;;;;7.20;4.83;;;10.20;99.70;;;;;;5088617;28;20433;-71
2021/04/11 05:41:03;;;;;;;9.37;4.80;;;10.20;99.70;;;;;;5104233;28;20486;-69
2021/04/11 05:43:36;;;;;;;9.77;5.73;;;10.30;99.70;;;;;;5110322;28;20452;-71
2021/04/11 05:46:10;;;;;;;10.70;5.23;;;10.30;99.70;;;;;;5102599;28;20438;-70
2021/04/11 05:48:42;;;;;;;8.50;5.40;;;10.50;99.70;;;;;;5089518;28;20477;-68
2021/04/11 05:51:15;;;;;;;12.13;6.57;;;10.60;99.70;;;;;;5089640;28;20544;-72
2021/04/11 05:53:46;;;;;;;13.00;6.13;;;10.70;99.70;;;;;;5127447;22;20500;-71
2021/04/11 05:56:16;;;;;;;22.50;8.97;;;10.70;99.70;;;;;;5110127;28;20528;-72
2021/04/11 05:58:46;;;;;;;33.47;14.10;;;10.80;99.70;;;;;;5110521;28;20452;-72
2021/04/11 06:01:18;;;;;;;29.37;12.20;;;10.90;99.70;;;;;;5109575;28;20444;-72
2021/04/11 06:03:51;;;;;;;28.77;11.43;;;10.90;99.70;;;;;;5110530;28;20472;-73
2021/04/11 06:06:22;;;;;;;46.17;17.10;;;11.10;99.70;;;;;;5110695;28;20969;-72
2021/04/11 06:08:56;;;;;;;21.00;9.93;;;11.20;99.70;;;;;;5110364;28;20965;-72
2021/04/11 06:11:30;;;;;;;29.53;12.77;;;11.20;99.70;;;;;;5114061;28;20444;-72
2021/04/11 06:14:00;;;;;;;53.37;21.10;;;11.40;99.70;;;;;;5114789;28;20465;-72
2021/04/11 06:16:29;;;;;;;29.37;12.17;;;11.40;99.60;;;;;;5114570;28;20459;-72
2021/04/11 06:18:56;;;;;;;15.90;8.63;;;11.40;99.70;;;;;;5113904;28;20522;-72
2021/04/11 06:21:34;;;;;;;13.80;7.50;;;11.50;99.40;;;;;;5114082;28;20830;-73
2021/04/11 06:24:07;;;;;;;15.93;7.37;;;11.50;99.20;;;;;;5114246;28;20517;-72
2021/04/11 06:26:38;;;;;;;11.77;6.57;;;11.50;99.70;;;;;;5113414;28;20445;-72
2021/04/11 06:29:11;;;;;;;9.20;5.20;;;11.50;99.70;;;;;;5114217;28;20493;-73
2021/04/11 06:31:44;;;;;;;9.93;5.17;;;11.60;99.70;;;;;;5113561;28;20452;-72
2021/04/11 06:34:15;;;;;;;13.90;5.40;;;11.70;99.70;;;;;;5113720;28;20464;-72
2021/04/11 06:36:45;;;;;;;8.87;5.30;;;11.80;99.20;;;;;;5113744;28;20441;-72
2021/04/11 06:39:16;;;;;;;7.80;4.83;;;12.00;99.70;;;;;;5113309;28;20445;-71
2021/04/11 06:42:28;;;;;;;12.03;5.90;;;12.10;99.00;;;;;;5113638;28;20448;-71
2021/04/11 06:45:07;;;;;;;7.27;4.77;;;12.20;99.30;;;;;;5113508;28;20457;-71
2021/04/11 06:48:10;;;;;;;7.63;5.10;;;12.20;99.70;;;;;;5113456;28;20525;-72
2021/04/11 06:50:57;;;;;;;5.57;3.90;;;12.50;99.00;;;;;;5019120;28;20902;-72
2021/04/11 06:53:42;;;;;;;5.77;3.90;;;12.90;96.30;;;;;;5113963;28;20473;-72
2021/04/11 06:56:34;;;;;;;8.97;5.20;;;13.30;94.80;;;;;;5113750;28;20433;-73
2021/04/11 06:59:16;;;;;;;7.80;5.10;;;13.80;96.40;;;;;;5113756;28;20445;-72
2021/04/11 07:02:03;;;;;;;9.00;4.90;;;14.30;94.40;;;;;;5110254;28;20509;-72
2021/04/11 07:05:02;;;;;;;8.40;4.90;;;15.20;91.40;;;;;;5093521;28;20457;-72
2021/04/11 07:08:06;;;;;;;6.57;4.40;;;15.90;89.10;;;;;;5092045;28;20478;-72
2021/04/11 07:10:49;;;;;;;6.43;4.60;;;16.30;87.70;;;;;;5093255;28;20442;-72
2021/04/11 07:13:59;;;;;;;5.57;3.70;;;16.60;87.30;;;;;;5092986;28;20983;-72
2021/04/11 07:17:15;;;;;;;5.10;3.70;;;16.50;84.80;;;;;;5092618;28;20450;-72
2021/04/11 07:20:14;;;;;;;6.97;4.20;;;16.30;83.40;;;;;;5112911;28;20449;-72
2021/04/11 07:23:09;;;;;;;6.03;3.90;;;15.60;86.80;;;;;;5077562;28;20441;-72
2021/04/11 07:25:56;;;;;;;6.63;4.17;;;15.50;86.30;;;;;;5112517;28;20437;-72
2021/04/11 07:28:35;;;;;;;6.57;4.20;;;15.30;88.90;;;;;;5092900;28;20478;-72
2021/04/11 07:31:12;;;;;;;6.30;4.30;;;15.30;87.60;;;;;;5091510;28;20434;-72
2021/04/11 07:34:04;;;;;;;7.70;5.43;;;15.00;88.20;;;;;;5093037;28;20478;-72
2021/04/11 07:36:53;;;;;;;11.30;6.40;;;14.70;92.00;;;;;;5092815;28;20449;-72
2021/04/11 07:39:34;;;;;;;6.80;4.67;;;14.70;94.80;;;;;;5092664;28;20453;-72
2021/04/11 07:42:39;;;;;;;8.50;4.77;;;15.00;89.20;;;;;;5097595;28;20486;-73
2021/04/11 07:45:20;;;;;;;9.23;3.27;;;15.30;86.60;;;;;;5092582;28;20553;-73
2021/04/11 07:48:03;;;;;;;7.20;3.70;;;15.60;83.90;;;;;;5091353;28;20474;-72
2021/04/11 07:50:46;;;;;;;5.20;4.10;;;16.10;84.70;;;;;;5092220;28;20454;-73
2021/04/11 07:53:30;;;;;;;6.03;3.50;;;16.70;83.00;;;;;;5092190;28;20481;-73
2021/04/11 07:56:09;;;;;;;6.00;3.70;;;17.10;82.70;;;;;;5100099;28;21050;-72
2021/04/11 07:59:01;;;;;;;5.70;4.07;;;17.20;83.40;;;;;;5103123;28;20438;-73
2021/04/11 08:01:43;;;;;;;5.17;3.70;;;16.70;82.50;;;;;;5105661;28;20970;-72
2021/04/11 08:04:36;;;;;;;4.97;3.20;;;16.60;84.90;;;;;;5094995;28;20469;-73
2021/04/11 08:07:28;;;;;;;5.27;3.23;;;16.60;83.00;;;;;;5099592;28;20561;-72
2021/04/11 08:10:06;;;;;;;5.83;3.80;;;16.40;85.10;;;;;;5093729;28;20446;-72
2021/04/11 08:12:56;;;;;;;4.13;3.27;;;16.10;86.10;;;;;;5106935;28;20988;-72
2021/04/11 08:15:29;;;;;;;7.10;3.97;;;15.90;87.10;;;;;;5112530;28;20829;-72
2021/04/11 08:18:02;;;;;;;5.40;3.53;;;15.90;86.20;;;;;;5112388;28;20445;-72
2021/04/11 08:21:00;;;;;;;9.83;3.57;;;16.10;85.60;;;;;;5112307;28;20432;-72
2021/04/11 08:24:14;;;;;;;5.00;3.37;;;16.20;84.70;;;;;;5112371;28;20468;-73
2021/04/11 08:27:25;;;;;;;4.93;3.33;;;16.40;84.60;;;;;;5063249;28;20953;-74
2021/04/11 08:30:30;;;;;;;7.60;4.00;;;16.30;85.90;;;;;;5111232;28;20451;-72
2021/04/11 08:33:36;;;;;;;7.10;3.90;;;16.30;85.10;;;;;;5110405;28;20493;-73
2021/04/11 08:36:37;;;;;;;4.37;3.07;;;16.30;85.60;;;;;;5091992;28;20456;-74
2021/04/11 08:39:40;;;;;;;5.30;3.20;;;16.20;84.40;;;;;;5105617;28;20455;-73
2021/04/11 08:42:29;;;;;;;4.37;3.20;;;16.50;85.70;;;;;;5092090;28;20780;-74
2021/04/11 08:45:06;;;;;;;4.47;3.07;;;16.60;84.90;;;;;;5092155;28;20481;-73
2021/04/11 08:47:41;;;;;;;4.80;3.03;;;16.60;85.20;;;;;;5096450;28;20465;-73
2021/04/11 08:50:15;;;;;;;5.37;2.90;;;16.40;84.20;;;;;;5091700;28;20445;-73
2021/04/11 08:52:45;;;;;;;5.27;2.77;;;16.60;83.70;;;;;;5110774;28;20452;-73
2021/04/11 08:55:24;;;;;;;4.13;3.10;;;16.60;85.40;;;;;;5108724;28;20461;-73
2021/04/11 08:58:21;;;;;;;5.63;3.43;;;16.70;85.60;;;;;;5112303;28;20463;-73
2021/04/11 09:00:51;;;;;;;6.70;3.17;;;16.80;84.70;;;;;;5109183;28;20441;-73
2021/04/11 09:03:57;;;;;;;6.10;3.50;;;16.80;84.30;;;;;;5090871;28;20474;-73
2021/04/11 09:06:33;;;;;;;5.10;2.93;;;16.80;85.00;;;;;;5021721;28;20445;-73
2021/04/11 09:09:14;;;;;;;4.83;2.93;;;17.00;84.80;;;;;;5088001;28;20441;-74
2021/04/11 09:11:48;;;;;;;6.70;3.00;;;16.90;84.50;;;;;;5090560;28;20437;-73
2021/04/11 09:14:46;;;;;;;5.43;3.27;;;16.70;86.20;;;;;;5103145;28;20461;-75
2021/04/11 09:17:34;;;;;;;5.43;3.10;;;16.60;85.10;;;;;;5089954;28;20956;-73
2021/04/11 09:20:11;;;;;;;5.43;3.07;;;16.60;85.50;;;;;;5096430;28;20460;-74
2021/04/11 09:22:52;;;;;;;4.70;3.13;;;16.70;85.90;;;;;;5107319;28;20958;-73
2021/04/11 09:25:22;;;;;;;4.13;3.30;;;16.90;86.60;;;;;;5110034;28;20440;-73
2021/04/11 09:28:07;;;;;;;5.50;3.40;;;16.80;85.10;;;;;;5104578;28;20720;-72
2021/04/11 09:30:49;;;;;;;6.80;3.90;;;16.80;86.90;;;;;;5103296;28;20453;-73
2021/04/11 09:33:38;;;;;;;6.20;3.57;;;16.80;85.40;;;;;;5107737;28;20465;-73
2021/04/11 09:36:16;;;;;;;5.20;3.57;;;16.80;84.90;;;;;;5097740;28;20438;-73
2021/04/11 09:39:05;;;;;;;5.23;3.87;;;16.90;85.20;;;;;;5107664;28;20467;-73
2021/04/11 09:41:43;;;;;;;5.87;3.60;;;16.70;85.10;;;;;;5110429;28;20433;-73
2021/04/11 09:44:34;;;;;;;8.40;4.07;;;16.90;85.20;;;;;;5111340;28;20521;-73
2021/04/11 09:47:31;;;;;;;5.00;3.90;;;17.00;85.40;;;;;;5115789;28;20831;-73
2021/04/11 09:50:19;;;;;;;5.63;3.00;;;17.30;84.40;;;;;;5114492;28;20448;-73
2021/04/11 09:53:10;;;;;;;4.67;2.73;;;17.40;84.20;;;;;;5100615;28;20425;-73
2021/04/11 09:55:40;;;;;;;3.80;2.77;;;17.30;84.60;;;;;;5108000;28;20537;-73
2021/04/11 09:58:42;;;;;;;4.13;2.70;;;17.60;83.50;;;;;;5109107;28;20536;-73
2021/04/11 10:01:23;;;;;;;3.20;2.30;;;17.30;84.50;;;;;;5115066;28;20819;-73
2021/04/11 10:04:04;;;;;;;3.20;2.43;;;17.40;82.40;;;;;;5115302;28;20464;-74
2021/04/11 10:06:45;;;;;;;3.97;2.73;;;17.70;81.90;;;;;;5115700;28;20444;-73
2021/04/11 10:09:26;;;;;;;6.33;2.63;;;17.50;81.90;;;;;;5114778;28;20444;-72
2021/04/11 10:12:07;;;;;;;4.93;2.50;;;17.50;80.60;;;;;;5110324;28;20825;-72
2021/04/11 10:14:48;;;;;;;5.80;2.77;;;17.70;81.70;;;;;;5113783;28;20518;-73
2021/04/11 10:17:29;;;;;;;3.33;2.40;;;17.90;79.50;;;;;;5114726;28;20443;-73
2021/04/11 10:20:08;;;;;;;3.33;2.40;;;17.90;80.20;;;;;;5114801;28;20935;-73
2021/04/11 10:22:42;;;;;;;3.60;2.67;;;17.80;80.50;;;;;;5115972;28;20445;-73
2021/04/11 10:25:21;;;;;;;4.33;2.60;;;17.90;80.40;;;;;;5114639;28;20428;-73
2021/04/11 10:27:55;;;;;;;4.20;2.60;;;17.70;80.80;;;;;;5110678;28;20469;-73
2021/04/11 10:30:23;;;;;;;5.10;2.70;;;17.80;80.60;;;;;;5115096;28;20850;-74
2021/04/11 10:33:03;;;;;;;2.80;2.27;;;17.80;80.30;;;;;;5110187;28;20818;-73
2021/04/11 10:35:41;;;;;;;4.00;2.50;;;17.80;81.00;;;;;;5094546;28;20950;-73
2021/04/11 10:38:14;;;;;;;7.50;3.23;;;18.00;80.80;;;;;;5104782;28;20448;-73
2021/04/11 10:41:08;;;;;;;5.30;2.50;;;18.40;80.30;;;;;;5094219;28;20434;-73
2021/04/11 10:44:00;;;;;;;3.70;3.00;;;18.30;78.70;;;;;;5089598;28;20477;-74
2021/04/11 10:46:36;;;;;;;4.63;2.80;;;18.30;79.50;;;;;;5112259;28;20465;-73
2021/04/11 10:49:21;;;;;;;3.57;2.60;;;17.80;78.90;;;;;;5100547;28;20503;-72
2021/04/11 10:52:08;;;;;;;3.30;2.30;;;17.60;79.90;;;;;;5093731;28;20430;-72
2021/04/11 10:54:54;;;;;;;3.47;2.50;;;17.40;79.50;;;;;;5089840;28;20511;-72
2021/04/11 10:58:05;;;;;;;5.90;2.93;;;17.50;80.70;;;;;;5095023;28;20452;-72
2021/04/11 11:00:36;;;;;;;4.17;2.73;;;17.50;81.50;;;;;;5057499;28;21043;-73
2021/04/11 11:03:35;;;;;;;4.80;2.80;;;17.90;80.20;;;;;;5095790;28;20518;-73
2021/04/11 11:06:18;;;;;;;4.20;2.53;;;18.10;80.20;;;;;;5093217;28;20540;-73
2021/04/11 11:09:16;;;;;;;4.50;2.90;;;18.50;79.40;;;;;;5112968;28;20508;-72
2021/04/11 11:12:14;;;;;;;4.70;3.10;;;18.50;77.90;;;;;;5098443;28;20450;-72
2021/04/11 11:15:06;;;;;;;6.43;2.63;;;18.40;79.00;;;;;;5107608;28;21071;-72
2021/04/11 11:17:56;;;;;;;4.63;2.60;;;18.20;78.70;;;;;;5111017;28;20498;-72
2021/04/11 11:20:26;;;;;;;6.80;3.03;;;18.10;76.90;;;;;;5077786;28;20479;-72
2021/04/11 11:23:21;;;;;;;5.03;3.17;;;18.10;77.30;;;;;;5104385;28;20460;-72
2021/04/11 11:26:11;;;;;;;6.77;3.10;;;17.90;77.60;;;;;;5106552;28;20452;-71
2021/04/11 11:28:54;;;;;;;4.30;2.77;;;17.90;78.30;;;;;;5099318;28;20481;-72
2021/04/11 11:31:31;;;;;;;4.20;3.07;;;17.70;80.80;;;;;;5099351;28;20477;-71
2021/04/11 11:34:16;;;;;;;4.33;2.80;;;17.70;78.40;;;;;;5113118;28;20465;-72
2021/04/11 11:36:46;;;;;;;3.80;2.77;;;17.40;81.20;;;;;;5108536;28;20442;-72
2021/04/11 11:39:23;;;;;;;5.43;2.77;;;17.40;80.90;;;;;;5092579;28;20532;-73
2021/04/11 11:41:57;;;;;;;5.40;2.43;;;17.60;82.30;;;;;;5092834;28;20448;-73
2021/04/11 11:44:27;;;;;;;4.30;2.73;;;17.80;82.00;;;;;;5101800;28;20456;-74
2021/04/11 11:47:02;;;;;;;3.47;2.27;;;17.70;81.20;;;;;;5113748;28;20686;-74
2021/04/11 11:49:36;;;;;;;5.77;2.77;;;17.70;81.30;;;;;;5098284;28;20843;-74
2021/04/11 11:52:08;;;;;;;4.80;2.60;;;17.90;80.90;;;;;;5102971;28;20448;-73
2021/04/11 11:54:38;;;;;;;4.90;2.77;;;18.10;79.00;;;;;;5098824;28;20485;-73
2021/04/11 11:57:20;;;;;;;5.40;2.73;;;18.30;81.40;;;;;;5111620;28;20444;-73
2021/04/11 11:59:58;;;;;;;5.27;2.80;;;18.10;80.40;;;;;;5102413;28;21129;-72
2021/04/11 12:02:33;;;;;;;3.50;2.80;;;18.20;80.10;;;;;;5093812;28;20441;-72
2021/04/11 12:05:11;;;;;;;3.53;2.70;;;18.10;80.40;;;;;;5112257;28;20468;-72
2021/04/11 12:07:41;;;;;;;5.33;2.70;;;18.10;81.20;;;;;;5102843;28;20496;-73
2021/04/11 12:10:17;;;;;;;5.57;2.60;;;18.30;79.60;;;;;;5105031;28;20816;-73
2021/04/11 12:12:54;;;;;;;4.73;2.40;;;18.40;80.00;;;;;;5095714;28;20433;-73
2021/04/11 12:15:25;;;;;;;4.30;2.60;;;18.50;79.50;;;;;;5092707;28;20596;-73
2021/04/11 12:17:58;;;;;;;3.67;2.40;;;18.50;78.00;;;;;;5094006;28;20456;-73
2021/04/11 12:20:37;;;;;;;4.97;2.43;;;18.50;76.70;;;;;;5105561;28;20441;-73
2021/04/11 12:23:08;;;;;;;4.67;2.80;;;18.60;77.30;;;;;;5090582;28;20541;-75
2021/04/11 12:25:36;;;;;;;5.00;2.40;;;18.70;79.70;;;;;;5110924;28;20817;-73
2021/04/11 12:28:22;;;;;;;3.90;2.57;;;19.10;78.30;;;;;;5103255;28;20474;-73
2021/04/11 12:30:49;;;;;;;3.00;2.27;;;19.30;77.10;;;;;;5110391;28;20821;-73
2021/04/11 12:33:29;;;;;;;4.20;2.73;;;19.10;75.60;;;;;;5107778;28;20461;-73
2021/04/11 12:36:14;;;;;;;3.70;2.50;;;19.40;74.70;;;;;;5107581;28;20450;-72
2021/04/11 12:38:44;;;;;;;3.63;2.70;;;19.60;75.30;;;;;;5096160;28;20447;-72
2021/04/11 12:41:19;;;;;;;4.80;2.40;;;19.90;74.80;;;;;;5096450;28;20813;-73
2021/04/11 12:43:57;;;;;;;4.00;2.33;;;20.00;76.00;;;;;;5103299;28;20552;-72
2021/04/11 12:46:30;;;;;;;4.97;2.17;;;20.10;74.80;;;;;;5106519;28;20433;-73
2021/04/11 12:49:04;;;;;;;3.63;2.20;;;19.70;75.30;;;;;;5108393;28;20483;-71
2021/04/11 12:51:40;;;;;;;3.30;2.20;;;19.70;73.00;;;;;;5106325;28;20449;-72
2021/04/11 12:54:13;;;;;;;4.10;2.33;;;19.50;74.00;;;;;;5093091;28;20477;-72
2021/04/11 12:56:43;;;;;;;3.93;2.20;;;19.40;75.00;;;;;;5092506;28;20453;-73
2021/04/11 12:59:17;;;;;;;3.03;2.27;;;19.10;75.40;;;;;;5102245;28;20444;-72
2021/04/11 13:01:46;;;;;;;3.77;2.40;;;19.00;75.40;;;;;;5101099;28;20441;-72
2021/04/11 13:04:21;;;;;;;3.27;1.90;;;19.00;76.70;;;;;;5102248;28;20458;-72
2021/04/11 13:06:55;;;;;;;4.90;2.57;;;19.10;77.10;;;;;;5095714;28;20930;-72
2021/04/11 13:09:34;;;;;;;3.53;2.17;;;19.10;77.40;;;;;;5110858;28;20477;-71
2021/04/11 13:12:07;;;;;;;4.23;2.10;;;19.00;76.50;;;;;;5097402;28;20444;-72
2021/04/11 13:14:40;;;;;;;4.00;2.93;;;19.00;77.30;;;;;;5103895;28;20476;-72
2021/04/11 13:17:11;;;;;;;7.83;2.30;;;18.60;78.30;;;;;;5102864;28;20456;-72
2021/04/11 13:19:44;;;;;;;2.77;2.30;;;18.70;77.60;;;;;;5105175;28;20464;-72
2021/04/11 13:22:16;;;;;;;3.70;2.70;;;18.70;79.30;;;;;;5098788;28;20442;-73
2021/04/11 13:24:45;;;;;;;6.03;2.93;;;18.70;78.30;;;;;;5098815;28;20464;-73
2021/04/11 13:27:19;;;;;;;3.50;2.63;;;18.60;78.70;;;;;;5095606;28;20445;-72
2021/04/11 13:29:52;;;;;;;4.93;2.40;;;18.50;77.80;;;;;;5097130;28;20878;-72
2021/04/11 13:32:28;;;;;;;18.73;3.50;;;18.40;79.50;;;;;;5096252;28;20560;-73